sensor_id;sensor_type;location;lat;lon;timestamp;P1;durP1;ratioP1;P2;durP2;ratioP2
69625;SDS011;56847;51.984;5.088;2023-10-08T00:01:52;30.95;;;6.85;;
69625;SDS011;56847;51.984;5.088;2023-10-08T00:04:22;36.40;;;7.30;;
69625;SDS011;56847;51.984;5.088;2023-10-08T00:06:50;28.70;;;6.37;;
69625;SDS011;56847;51.984;5.088;2023-10-08T00:09:19;35.75;;;7.15;;
69625;SDS011;56847;51.984;5.088;2023-10-08T00:11:50;32.78;;;7.28;;
69625;SDS011;56847;51.984;5.088;2023-10-08T00:14:34;36.83;;;6.72;;
69625;SDS011;56847;51.984;5.088;2023-10-08T00:17:24;35.38;;;7.88;;
69625;SDS011;56847;51.984;5.088;2023-10-08T00:19:52;43.70;;;10.50;;
69625;SDS011;56847;51.984;5.088;2023-10-08T00:22:21;60.03;;;22.63;;
69625;SDS011;56847;51.984;5.088;2023-10-08T00:24:52;78.68;;;36.05;;
69625;SDS011;56847;51.984;5.088;2023-10-08T00:27:27;87.47;;;31.85;;
69625;SDS011;56847;51.984;5.088;2023-10-08T00:29:57;62.20;;;22.92;;
69625;SDS011;56847;51.984;5.088;2023-10-08T00:32:27;44.50;;;17.00;;
69625;SDS011;56847;51.984;5.088;2023-10-08T00:34:56;50.53;;;14.70;;
69625;SDS011;56847;51.984;5.088;2023-10-08T00:37:24;46.90;;;12.88;;
69625;SDS011;56847;51.984;5.088;2023-10-08T00:39:55;61.42;;;21.42;;
69625;SDS011;56847;51.984;5.088;2023-10-08T00:42:23;64.88;;;24.90;;
69625;SDS011;56847;51.984;5.088;2023-10-08T00:44:55;90.47;;;36.07;;
69625;SDS011;56847;51.984;5.088;2023-10-08T00:47:24;83.40;;;31.58;;
69625;SDS011;56847;51.984;5.088;2023-10-08T00:49:56;108.85;;;40.17;;
69625;SDS011;56847;51.984;5.088;2023-10-08T00:52:37;85.93;;;33.55;;
69625;SDS011;56847;51.984;5.088;2023-10-08T00:55:19;59.67;;;22.25;;
69625;SDS011;56847;51.984;5.088;2023-10-08T00:57:59;53.37;;;21.70;;
69625;SDS011;56847;51.984;5.088;2023-10-08T01:00:37;43.42;;;16.13;;
69625;SDS011;56847;51.984;5.088;2023-10-08T01:03:10;34.80;;;10.50;;
69625;SDS011;56847;51.984;5.088;2023-10-08T01:05:46;42.17;;;9.15;;
69625;SDS011;56847;51.984;5.088;2023-10-08T01:08:15;26.38;;;7.95;;
69625;SDS011;56847;51.984;5.088;2023-10-08T01:10:53;36.00;;;8.73;;
69625;SDS011;56847;51.984;5.088;2023-10-08T01:13:30;29.52;;;8.30;;
69625;SDS011;56847;51.984;5.088;2023-10-08T01:16:09;38.50;;;8.23;;
69625;SDS011;56847;51.984;5.088;2023-10-08T01:18:40;35.20;;;7.63;;
69625;SDS011;56847;51.984;5.088;2023-10-08T01:21:20;38.08;;;8.25;;
69625;SDS011;56847;51.984;5.088;2023-10-08T01:24:10;30.47;;;8.03;;
69625;SDS011;56847;51.984;5.088;2023-10-08T01:26:47;31.30;;;7.65;;
69625;SDS011;56847;51.984;5.088;2023-10-08T01:29:15;30.88;;;7.68;;
69625;SDS011;56847;51.984;5.088;2023-10-08T01:31:48;38.75;;;8.15;;
69625;SDS011;56847;51.984;5.088;2023-10-08T01:34:17;33.75;;;8.40;;
69625;SDS011;56847;51.984;5.088;2023-10-08T01:37:07;31.87;;;7.80;;
69625;SDS011;56847;51.984;5.088;2023-10-08T01:39:45;33.75;;;7.85;;
69625;SDS011;56847;51.984;5.088;2023-10-08T01:42:18;34.90;;;8.77;;
69625;SDS011;56847;51.984;5.088;2023-10-08T01:44:51;28.75;;;8.18;;
69625;SDS011;56847;51.984;5.088;2023-10-08T01:47:35;24.85;;;7.50;;
69625;SDS011;56847;51.984;5.088;2023-10-08T01:50:04;33.67;;;7.90;;
69625;SDS011;56847;51.984;5.088;2023-10-08T01:52:38;32.85;;;7.80;;
69625;SDS011;56847;51.984;5.088;2023-10-08T01:55:14;31.52;;;8.85;;
69625;SDS011;56847;51.984;5.088;2023-10-08T01:57:50;29.75;;;8.48;;
69625;SDS011;56847;51.984;5.088;2023-10-08T02:00:20;32.67;;;8.50;;
69625;SDS011;56847;51.984;5.088;2023-10-08T02:02:54;28.93;;;7.10;;
69625;SDS011;56847;51.984;5.088;2023-10-08T02:05:27;30.90;;;8.80;;
69625;SDS011;56847;51.984;5.088;2023-10-08T02:07:59;32.83;;;9.38;;
69625;SDS011;56847;51.984;5.088;2023-10-08T02:10:28;27.05;;;7.65;;
69625;SDS011;56847;51.984;5.088;2023-10-08T02:13:03;26.30;;;7.90;;
69625;SDS011;56847;51.984;5.088;2023-10-08T02:15:34;34.57;;;9.30;;
69625;SDS011;56847;51.984;5.088;2023-10-08T02:18:06;30.42;;;8.25;;
69625;SDS011;56847;51.984;5.088;2023-10-08T02:20:35;35.90;;;8.73;;
69625;SDS011;56847;51.984;5.088;2023-10-08T02:23:06;34.38;;;8.07;;
69625;SDS011;56847;51.984;5.088;2023-10-08T02:25:34;38.40;;;9.02;;
69625;SDS011;56847;51.984;5.088;2023-10-08T02:28:09;25.13;;;8.00;;
69625;SDS011;56847;51.984;5.088;2023-10-08T02:30:51;24.83;;;7.82;;
69625;SDS011;56847;51.984;5.088;2023-10-08T02:33:23;34.45;;;9.23;;
69625;SDS011;56847;51.984;5.088;2023-10-08T02:36:00;38.10;;;9.15;;
69625;SDS011;56847;51.984;5.088;2023-10-08T02:38:38;33.42;;;9.13;;
69625;SDS011;56847;51.984;5.088;2023-10-08T02:41:09;34.13;;;8.97;;
69625;SDS011;56847;51.984;5.088;2023-10-08T02:43:45;31.42;;;8.90;;
69625;SDS011;56847;51.984;5.088;2023-10-08T02:46:16;35.35;;;9.40;;
69625;SDS011;56847;51.984;5.088;2023-10-08T02:48:57;29.52;;;9.40;;
69625;SDS011;56847;51.984;5.088;2023-10-08T02:51:31;27.40;;;9.52;;
69625;SDS011;56847;51.984;5.088;2023-10-08T02:54:04;36.57;;;9.67;;
69625;SDS011;56847;51.984;5.088;2023-10-08T02:56:35;34.88;;;9.90;;
69625;SDS011;56847;51.984;5.088;2023-10-08T02:59:03;34.67;;;9.45;;
69625;SDS011;56847;51.984;5.088;2023-10-08T03:01:35;35.38;;;10.27;;
69625;SDS011;56847;51.984;5.088;2023-10-08T03:04:26;34.75;;;10.15;;
69625;SDS011;56847;51.984;5.088;2023-10-08T03:06:58;22.97;;;8.03;;
69625;SDS011;56847;51.984;5.088;2023-10-08T03:09:26;26.58;;;8.75;;
69625;SDS011;56847;51.984;5.088;2023-10-08T03:11:58;30.52;;;9.73;;
69625;SDS011;56847;51.984;5.088;2023-10-08T03:14:28;45.78;;;10.20;;
69625;SDS011;56847;51.984;5.088;2023-10-08T03:17:21;31.67;;;9.68;;
69625;SDS011;56847;51.984;5.088;2023-10-08T03:19:49;30.80;;;10.03;;
69625;SDS011;56847;51.984;5.088;2023-10-08T03:22:17;33.42;;;10.60;;
69625;SDS011;56847;51.984;5.088;2023-10-08T03:24:50;33.63;;;10.40;;
69625;SDS011;56847;51.984;5.088;2023-10-08T03:27:17;28.48;;;9.30;;
69625;SDS011;56847;51.984;5.088;2023-10-08T03:30:02;35.85;;;9.63;;
69625;SDS011;56847;51.984;5.088;2023-10-08T03:32:32;29.67;;;9.37;;
69625;SDS011;56847;51.984;5.088;2023-10-08T03:35:02;30.00;;;8.48;;
69625;SDS011;56847;51.984;5.088;2023-10-08T03:37:31;26.70;;;9.27;;
69625;SDS011;56847;51.984;5.088;2023-10-08T03:40:10;27.70;;;9.48;;
69625;SDS011;56847;51.984;5.088;2023-10-08T03:42:52;28.13;;;10.38;;
69625;SDS011;56847;51.984;5.088;2023-10-08T03:45:25;38.10;;;9.97;;
69625;SDS011;56847;51.984;5.088;2023-10-08T03:48:11;36.45;;;10.40;;
69625;SDS011;56847;51.984;5.088;2023-10-08T03:50:42;31.70;;;10.52;;
69625;SDS011;56847;51.984;5.088;2023-10-08T03:53:10;43.33;;;10.10;;
69625;SDS011;56847;51.984;5.088;2023-10-08T03:55:39;25.80;;;10.35;;
69625;SDS011;56847;51.984;5.088;2023-10-08T03:58:10;33.37;;;9.53;;
69625;SDS011;56847;51.984;5.088;2023-10-08T04:00:57;31.80;;;9.20;;
69625;SDS011;56847;51.984;5.088;2023-10-08T04:03:38;26.42;;;9.32;;
69625;SDS011;56847;51.984;5.088;2023-10-08T04:06:29;29.08;;;9.02;;
69625;SDS011;56847;51.984;5.088;2023-10-08T04:09:04;29.45;;;10.35;;
69625;SDS011;56847;51.984;5.088;2023-10-08T04:11:36;34.57;;;10.10;;
69625;SDS011;56847;51.984;5.088;2023-10-08T04:14:24;30.25;;;10.30;;
69625;SDS011;56847;51.984;5.088;2023-10-08T04:16:52;29.65;;;11.90;;
69625;SDS011;56847;51.984;5.088;2023-10-08T04:19:21;34.05;;;10.43;;
69625;SDS011;56847;51.984;5.088;2023-10-08T04:21:55;30.17;;;11.00;;
69625;SDS011;56847;51.984;5.088;2023-10-08T04:24:24;30.03;;;9.63;;
69625;SDS011;56847;51.984;5.088;2023-10-08T04:27:03;30.95;;;9.45;;
69625;SDS011;56847;51.984;5.088;2023-10-08T04:29:33;38.17;;;11.88;;
69625;SDS011;56847;51.984;5.088;2023-10-08T04:32:04;26.48;;;9.50;;
69625;SDS011;56847;51.984;5.088;2023-10-08T04:34:39;40.08;;;10.75;;
69625;SDS011;56847;51.984;5.088;2023-10-08T04:37:12;32.83;;;9.47;;
69625;SDS011;56847;51.984;5.088;2023-10-08T04:39:40;23.92;;;9.43;;
69625;SDS011;56847;51.984;5.088;2023-10-08T04:42:22;28.42;;;9.73;;
69625;SDS011;56847;51.984;5.088;2023-10-08T04:44:53;21.05;;;9.57;;
69625;SDS011;56847;51.984;5.088;2023-10-08T04:47:21;30.42;;;9.98;;
69625;SDS011;56847;51.984;5.088;2023-10-08T04:49:59;29.43;;;10.83;;
69625;SDS011;56847;51.984;5.088;2023-10-08T04:52:27;34.30;;;10.13;;
69625;SDS011;56847;51.984;5.088;2023-10-08T04:54:55;29.60;;;10.90;;
69625;SDS011;56847;51.984;5.088;2023-10-08T04:57:24;27.13;;;9.30;;
69625;SDS011;56847;51.984;5.088;2023-10-08T04:59:59;31.25;;;11.07;;
69625;SDS011;56847;51.984;5.088;2023-10-08T05:02:28;23.40;;;8.97;;
69625;SDS011;56847;51.984;5.088;2023-10-08T05:05:16;35.53;;;11.35;;
69625;SDS011;56847;51.984;5.088;2023-10-08T05:07:44;48.50;;;12.45;;
69625;SDS011;56847;51.984;5.088;2023-10-08T05:10:15;31.83;;;11.30;;
69625;SDS011;56847;51.984;5.088;2023-10-08T05:12:52;34.10;;;12.43;;
69625;SDS011;56847;51.984;5.088;2023-10-08T05:15:32;34.60;;;10.97;;
69625;SDS011;56847;51.984;5.088;2023-10-08T05:18:03;30.83;;;10.90;;
69625;SDS011;56847;51.984;5.088;2023-10-08T05:20:50;32.13;;;11.20;;
69625;SDS011;56847;51.984;5.088;2023-10-08T05:23:30;36.25;;;11.98;;
69625;SDS011;56847;51.984;5.088;2023-10-08T05:25:57;38.50;;;11.57;;
69625;SDS011;56847;51.984;5.088;2023-10-08T05:28:39;36.93;;;11.60;;
69625;SDS011;56847;51.984;5.088;2023-10-08T05:31:24;34.28;;;11.05;;
69625;SDS011;56847;51.984;5.088;2023-10-08T05:34:21;33.13;;;11.13;;
69625;SDS011;56847;51.984;5.088;2023-10-08T05:36:59;35.60;;;10.57;;
69625;SDS011;56847;51.984;5.088;2023-10-08T05:39:26;38.75;;;11.75;;
69625;SDS011;56847;51.984;5.088;2023-10-08T05:42:07;25.70;;;10.63;;
69625;SDS011;56847;51.984;5.088;2023-10-08T05:44:46;27.92;;;11.45;;
69625;SDS011;56847;51.984;5.088;2023-10-08T05:47:32;28.15;;;11.80;;
69625;SDS011;56847;51.984;5.088;2023-10-08T05:50:00;30.48;;;11.98;;
69625;SDS011;56847;51.984;5.088;2023-10-08T05:52:45;44.63;;;13.00;;
69625;SDS011;56847;51.984;5.088;2023-10-08T05:55:25;49.47;;;12.40;;
69625;SDS011;56847;51.984;5.088;2023-10-08T05:58:04;45.38;;;12.20;;
69625;SDS011;56847;51.984;5.088;2023-10-08T06:00:47;48.80;;;13.13;;
69625;SDS011;56847;51.984;5.088;2023-10-08T06:03:18;42.08;;;11.40;;
69625;SDS011;56847;51.984;5.088;2023-10-08T06:06:24;38.95;;;11.38;;
69625;SDS011;56847;51.984;5.088;2023-10-08T06:09:06;48.00;;;11.47;;
69625;SDS011;56847;51.984;5.088;2023-10-08T06:11:37;45.00;;;10.98;;
69625;SDS011;56847;51.984;5.088;2023-10-08T06:14:11;53.92;;;11.13;;
69625;SDS011;56847;51.984;5.088;2023-10-08T06:17:05;42.97;;;9.18;;
69625;SDS011;56847;51.984;5.088;2023-10-08T06:20:04;31.25;;;7.97;;
69625;SDS011;56847;51.984;5.088;2023-10-08T06:22:36;31.33;;;7.73;;
69625;SDS011;56847;51.984;5.088;2023-10-08T06:34:05;22.38;;;7.32;;
69625;SDS011;56847;51.984;5.088;2023-10-08T06:36:39;19.40;;;6.20;;
69625;SDS011;56847;51.984;5.088;2023-10-08T06:39:07;17.30;;;6.53;;
69625;SDS011;56847;51.984;5.088;2023-10-08T06:41:41;21.58;;;7.68;;
69625;SDS011;56847;51.984;5.088;2023-10-08T06:44:18;21.58;;;6.70;;
69625;SDS011;56847;51.984;5.088;2023-10-08T06:46:50;23.60;;;7.88;;
69625;SDS011;56847;51.984;5.088;2023-10-08T06:49:21;24.00;;;7.03;;
69625;SDS011;56847;51.984;5.088;2023-10-08T06:51:51;18.98;;;7.75;;
69625;SDS011;56847;51.984;5.088;2023-10-08T06:54:22;25.83;;;8.18;;
69625;SDS011;56847;51.984;5.088;2023-10-08T06:56:57;27.40;;;9.13;;
69625;SDS011;56847;51.984;5.088;2023-10-08T06:59:27;35.17;;;10.70;;
69625;SDS011;56847;51.984;5.088;2023-10-08T07:01:58;35.40;;;9.10;;
69625;SDS011;56847;51.984;5.088;2023-10-08T07:04:49;33.08;;;8.23;;
69625;SDS011;56847;51.984;5.088;2023-10-08T07:07:29;23.23;;;6.95;;
69625;SDS011;56847;51.984;5.088;2023-10-08T07:10:06;17.25;;;6.38;;
69625;SDS011;56847;51.984;5.088;2023-10-08T07:12:40;24.52;;;7.22;;
69625;SDS011;56847;51.984;5.088;2023-10-08T07:15:13;23.00;;;6.40;;
69625;SDS011;56847;51.984;5.088;2023-10-08T07:17:41;26.30;;;6.57;;
69625;SDS011;56847;51.984;5.088;2023-10-08T07:20:18;13.90;;;5.07;;
69625;SDS011;56847;51.984;5.088;2023-10-08T07:22:50;21.67;;;5.07;;
69625;SDS011;56847;51.984;5.088;2023-10-08T07:25:23;21.67;;;4.93;;
69625;SDS011;56847;51.984;5.088;2023-10-08T07:27:53;14.73;;;4.07;;
69625;SDS011;56847;51.984;5.088;2023-10-08T07:30:24;24.85;;;4.88;;
69625;SDS011;56847;51.984;5.088;2023-10-08T07:33:12;10.80;;;4.43;;
69625;SDS011;56847;51.984;5.088;2023-10-08T07:35:49;18.27;;;5.45;;
69625;SDS011;56847;51.984;5.088;2023-10-08T07:38:59;20.48;;;6.10;;
69625;SDS011;56847;51.984;5.088;2023-10-08T07:41:46;14.83;;;4.47;;
69625;SDS011;56847;51.984;5.088;2023-10-08T07:44:17;17.52;;;5.20;;
69625;SDS011;56847;51.984;5.088;2023-10-08T07:46:51;13.95;;;4.80;;
69625;SDS011;56847;51.984;5.088;2023-10-08T07:49:32;15.75;;;4.32;;
69625;SDS011;56847;51.984;5.088;2023-10-08T07:52:01;18.63;;;4.72;;
69625;SDS011;56847;51.984;5.088;2023-10-08T07:54:34;13.60;;;4.53;;
69625;SDS011;56847;51.984;5.088;2023-10-08T07:57:03;9.52;;;4.28;;
69625;SDS011;56847;51.984;5.088;2023-10-08T08:00:01;16.10;;;4.10;;
69625;SDS011;56847;51.984;5.088;2023-10-08T08:03:00;12.07;;;4.25;;
69625;SDS011;56847;51.984;5.088;2023-10-08T08:05:32;18.60;;;5.45;;
69625;SDS011;56847;51.984;5.088;2023-10-08T08:08:17;15.20;;;4.33;;
69625;SDS011;56847;51.984;5.088;2023-10-08T08:48:08;19.00;;;4.28;;
69625;SDS011;56847;51.984;5.088;2023-10-08T08:50:40;15.32;;;4.80;;
69625;SDS011;56847;51.984;5.088;2023-10-08T08:59:11;16.42;;;5.40;;
69625;SDS011;56847;51.984;5.088;2023-10-08T09:02:13;14.18;;;4.88;;
69625;SDS011;56847;51.984;5.088;2023-10-08T09:04:53;14.75;;;5.10;;
69625;SDS011;56847;51.984;5.088;2023-10-08T09:07:23;18.73;;;5.13;;
69625;SDS011;56847;51.984;5.088;2023-10-08T09:09:56;11.02;;;4.75;;
69625;SDS011;56847;51.984;5.088;2023-10-08T09:12:33;14.43;;;5.10;;
69625;SDS011;56847;51.984;5.088;2023-10-08T09:15:01;13.10;;;4.95;;
69625;SDS011;56847;51.984;5.088;2023-10-08T09:17:33;13.75;;;4.95;;
69625;SDS011;56847;51.984;5.088;2023-10-08T09:20:09;11.13;;;4.77;;
69625;SDS011;56847;51.984;5.088;2023-10-08T09:22:39;13.23;;;4.40;;
69625;SDS011;56847;51.984;5.088;2023-10-08T09:25:07;10.55;;;4.55;;
69625;SDS011;56847;51.984;5.088;2023-10-08T09:27:37;13.50;;;4.82;;
69625;SDS011;56847;51.984;5.088;2023-10-08T09:30:13;13.07;;;4.90;;
69625;SDS011;56847;51.984;5.088;2023-10-08T09:32:47;22.17;;;4.47;;
69625;SDS011;56847;51.984;5.088;2023-10-08T09:35:24;17.83;;;5.45;;
69625;SDS011;56847;51.984;5.088;2023-10-08T09:37:54;16.83;;;4.60;;
69625;SDS011;56847;51.984;5.088;2023-10-08T09:40:26;10.88;;;4.78;;
69625;SDS011;56847;51.984;5.088;2023-10-08T09:42:56;16.58;;;4.78;;
69625;SDS011;56847;51.984;5.088;2023-10-08T09:45:27;12.37;;;4.67;;
69625;SDS011;56847;51.984;5.088;2023-10-08T09:47:55;11.85;;;5.18;;
69625;SDS011;56847;51.984;5.088;2023-10-08T09:50:36;8.43;;;5.13;;
69625;SDS011;56847;51.984;5.088;2023-10-08T09:53:08;11.45;;;5.25;;
69625;SDS011;56847;51.984;5.088;2023-10-08T09:55:53;17.23;;;5.60;;
69625;SDS011;56847;51.984;5.088;2023-10-08T09:58:25;7.90;;;4.90;;
69625;SDS011;56847;51.984;5.088;2023-10-08T10:00:54;9.70;;;4.80;;
69625;SDS011;56847;51.984;5.088;2023-10-08T10:03:25;11.35;;;5.93;;
69625;SDS011;56847;51.984;5.088;2023-10-08T10:05:54;14.52;;;5.55;;
69625;SDS011;56847;51.984;5.088;2023-10-08T10:08:27;8.07;;;5.18;;
69625;SDS011;56847;51.984;5.088;2023-10-08T10:11:02;14.67;;;5.03;;
69625;SDS011;56847;51.984;5.088;2023-10-08T10:13:34;11.00;;;5.93;;
69625;SDS011;56847;51.984;5.088;2023-10-08T10:16:09;12.20;;;5.63;;
69625;SDS011;56847;51.984;5.088;2023-10-08T10:18:51;11.10;;;5.43;;
69625;SDS011;56847;51.984;5.088;2023-10-08T10:21:25;11.63;;;5.70;;
69625;SDS011;56847;51.984;5.088;2023-10-08T10:24:21;8.83;;;5.77;;
69625;SDS011;56847;51.984;5.088;2023-10-08T10:27:12;11.43;;;6.10;;
69625;SDS011;56847;51.984;5.088;2023-10-08T10:29:42;13.57;;;6.35;;
69625;SDS011;56847;51.984;5.088;2023-10-08T10:32:17;12.18;;;6.20;;
69625;SDS011;56847;51.984;5.088;2023-10-08T10:34:48;16.85;;;6.20;;
69625;SDS011;56847;51.984;5.088;2023-10-08T10:37:22;11.07;;;6.40;;
69625;SDS011;56847;51.984;5.088;2023-10-08T10:40:10;13.52;;;6.03;;
69625;SDS011;56847;51.984;5.088;2023-10-08T10:43:07;13.48;;;6.82;;
69625;SDS011;56847;51.984;5.088;2023-10-08T10:58:18;10.10;;;6.88;;
69625;SDS011;56847;51.984;5.088;2023-10-08T11:00:59;13.75;;;6.30;;
69625;SDS011;56847;51.984;5.088;2023-10-08T11:03:37;14.88;;;7.20;;
69625;SDS011;56847;51.984;5.088;2023-10-08T11:06:19;8.80;;;6.80;;
69625;SDS011;56847;51.984;5.088;2023-10-08T11:09:28;11.65;;;6.35;;
69625;SDS011;56847;51.984;5.088;2023-10-08T11:12:33;12.70;;;6.20;;
69625;SDS011;56847;51.984;5.088;2023-10-08T11:21:25;8.27;;;5.17;;
69625;SDS011;56847;51.984;5.088;2023-10-08T11:36:09;7.10;;;5.30;;
69625;SDS011;56847;51.984;5.088;2023-10-08T11:38:47;8.63;;;5.55;;
69625;SDS011;56847;51.984;5.088;2023-10-08T11:59:57;6.60;;;4.45;;
69625;SDS011;56847;51.984;5.088;2023-10-08T12:02:32;14.15;;;5.00;;
69625;SDS011;56847;51.984;5.088;2023-10-08T12:49:04;8.95;;;4.28;;
69625;SDS011;56847;51.984;5.088;2023-10-08T12:51:53;8.67;;;4.10;;
69625;SDS011;56847;51.984;5.088;2023-10-08T12:54:47;9.50;;;4.32;;
69625;SDS011;56847;51.984;5.088;2023-10-08T12:57:33;10.75;;;4.03;;
69625;SDS011;56847;51.984;5.088;2023-10-08T13:00:14;10.00;;;4.28;;
69625;SDS011;56847;51.984;5.088;2023-10-08T13:02:57;11.50;;;4.18;;
69625;SDS011;56847;51.984;5.088;2023-10-08T13:11:24;8.63;;;4.20;;
69625;SDS011;56847;51.984;5.088;2023-10-08T13:46:39;10.63;;;5.97;;
69625;SDS011;56847;51.984;5.088;2023-10-08T13:49:19;11.67;;;6.00;;
69625;SDS011;56847;51.984;5.088;2023-10-08T13:52:20;9.90;;;5.72;;
69625;SDS011;56847;51.984;5.088;2023-10-08T13:55:23;11.75;;;5.65;;
69625;SDS011;56847;51.984;5.088;2023-10-08T15:01:57;15.25;;;5.50;;
69625;SDS011;56847;51.984;5.088;2023-10-08T15:33:02;10.77;;;6.57;;
69625;SDS011;56847;51.984;5.088;2023-10-08T15:35:48;13.50;;;6.13;;
69625;SDS011;56847;51.984;5.088;2023-10-08T15:38:16;16.52;;;6.32;;
69625;SDS011;56847;51.984;5.088;2023-10-08T15:41:08;14.13;;;6.93;;
69625;SDS011;56847;51.984;5.088;2023-10-08T16:54:18;9.18;;;7.03;;
69625;SDS011;56847;51.984;5.088;2023-10-08T18:36:02;28.90;;;15.03;;
69625;SDS011;56847;51.984;5.088;2023-10-08T18:38:55;23.80;;;14.18;;
69625;SDS011;56847;51.984;5.088;2023-10-08T18:41:30;29.23;;;15.60;;
69625;SDS011;56847;51.984;5.088;2023-10-08T18:44:07;28.45;;;15.63;;
69625;SDS011;56847;51.984;5.088;2023-10-08T18:46:43;30.38;;;17.25;;
69625;SDS011;56847;51.984;5.088;2023-10-08T18:49:20;26.80;;;15.83;;
69625;SDS011;56847;51.984;5.088;2023-10-08T18:51:56;31.05;;;16.00;;
69625;SDS011;56847;51.984;5.088;2023-10-08T18:54:26;31.02;;;16.30;;
69625;SDS011;56847;51.984;5.088;2023-10-08T18:56:58;27.50;;;15.65;;
69625;SDS011;56847;51.984;5.088;2023-10-08T18:59:38;34.45;;;18.35;;
69625;SDS011;56847;51.984;5.088;2023-10-08T19:02:24;29.23;;;18.90;;
69625;SDS011;56847;51.984;5.088;2023-10-08T19:04:57;31.73;;;17.70;;
69625;SDS011;56847;51.984;5.088;2023-10-08T19:08:03;28.45;;;17.38;;
69625;SDS011;56847;51.984;5.088;2023-10-08T19:11:09;34.70;;;17.45;;
69625;SDS011;56847;51.984;5.088;2023-10-08T20:43:37;69.57;;;30.30;;
69625;SDS011;56847;51.984;5.088;2023-10-08T20:46:05;70.85;;;30.35;;
69625;SDS011;56847;51.984;5.088;2023-10-08T20:48:33;71.07;;;31.02;;
69625;SDS011;56847;51.984;5.088;2023-10-08T20:51:00;68.07;;;29.53;;
69625;SDS011;56847;51.984;5.088;2023-10-08T20:53:27;77.40;;;31.95;;
69625;SDS011;56847;51.984;5.088;2023-10-08T20:55:54;65.10;;;30.35;;
69625;SDS011;56847;51.984;5.088;2023-10-08T20:58:21;67.85;;;31.20;;
69625;SDS011;56847;51.984;5.088;2023-10-08T21:00:54;76.07;;;32.88;;
69625;SDS011;56847;51.984;5.088;2023-10-08T21:03:23;71.97;;;31.50;;
69625;SDS011;56847;51.984;5.088;2023-10-08T21:05:50;70.10;;;31.10;;
69625;SDS011;56847;51.984;5.088;2023-10-08T21:08:17;74.22;;;32.85;;
69625;SDS011;56847;51.984;5.088;2023-10-08T21:10:46;72.47;;;33.28;;
69625;SDS011;56847;51.984;5.088;2023-10-08T21:13:26;74.80;;;34.22;;
69625;SDS011;56847;51.984;5.088;2023-10-08T21:15:56;80.93;;;33.30;;
69625;SDS011;56847;51.984;5.088;2023-10-08T21:18:26;85.72;;;34.47;;
69625;SDS011;56847;51.984;5.088;2023-10-08T21:20:55;79.22;;;34.00;;
69625;SDS011;56847;51.984;5.088;2023-10-08T21:23:42;76.82;;;33.47;;
69625;SDS011;56847;51.984;5.088;2023-10-08T21:26:24;79.68;;;34.75;;
69625;SDS011;56847;51.984;5.088;2023-10-08T21:29:00;76.27;;;31.13;;
69625;SDS011;56847;51.984;5.088;2023-10-08T21:31:30;80.18;;;33.80;;
69625;SDS011;56847;51.984;5.088;2023-10-08T21:34:15;73.22;;;33.28;;
69625;SDS011;56847;51.984;5.088;2023-10-08T21:36:56;76.70;;;34.25;;
69625;SDS011;56847;51.984;5.088;2023-10-08T21:39:28;89.88;;;35.30;;
69625;SDS011;56847;51.984;5.088;2023-10-08T21:42:08;73.23;;;32.60;;
69625;SDS011;56847;51.984;5.088;2023-10-08T21:44:47;77.82;;;34.40;;
69625;SDS011;56847;51.984;5.088;2023-10-08T21:47:30;89.47;;;35.13;;
69625;SDS011;56847;51.984;5.088;2023-10-08T21:50:12;89.50;;;34.92;;
69625;SDS011;56847;51.984;5.088;2023-10-08T21:52:59;73.30;;;33.42;;
69625;SDS011;56847;51.984;5.088;2023-10-08T21:55:40;82.40;;;34.07;;
69625;SDS011;56847;51.984;5.088;2023-10-08T21:58:12;81.18;;;34.05;;
69625;SDS011;56847;51.984;5.088;2023-10-08T22:00:40;97.93;;;37.22;;
69625;SDS011;56847;51.984;5.088;2023-10-08T22:03:29;72.13;;;33.17;;
69625;SDS011;56847;51.984;5.088;2023-10-08T22:06:14;79.90;;;35.13;;
69625;SDS011;56847;51.984;5.088;2023-10-08T22:08:59;78.47;;;32.57;;
69625;SDS011;56847;51.984;5.088;2023-10-08T22:11:42;67.13;;;31.83;;
69625;SDS011;56847;51.984;5.088;2023-10-08T22:14:20;82.13;;;34.15;;
69625;SDS011;56847;51.984;5.088;2023-10-08T22:16:52;64.90;;;30.90;;
69625;SDS011;56847;51.984;5.088;2023-10-08T22:19:37;68.03;;;32.95;;
69625;SDS011;56847;51.984;5.088;2023-10-08T22:22:14;78.47;;;33.60;;
69625;SDS011;56847;51.984;5.088;2023-10-08T22:24:49;70.97;;;32.80;;
69625;SDS011;56847;51.984;5.088;2023-10-08T22:27:29;67.80;;;32.40;;
69625;SDS011;56847;51.984;5.088;2023-10-08T22:30:07;81.05;;;32.67;;
69625;SDS011;56847;51.984;5.088;2023-10-08T22:33:00;80.28;;;34.05;;
69625;SDS011;56847;51.984;5.088;2023-10-08T22:35:38;68.13;;;32.10;;
69625;SDS011;56847;51.984;5.088;2023-10-08T22:38:49;67.00;;;31.67;;
69625;SDS011;56847;51.984;5.088;2023-10-08T22:41:35;68.18;;;31.50;;
69625;SDS011;56847;51.984;5.088;2023-10-08T22:44:05;72.50;;;30.50;;
69625;SDS011;56847;51.984;5.088;2023-10-08T22:46:50;66.65;;;30.42;;
69625;SDS011;56847;51.984;5.088;2023-10-08T22:49:55;68.97;;;33.03;;
69625;SDS011;56847;51.984;5.088;2023-10-08T22:53:03;78.65;;;32.08;;
69625;SDS011;56847;51.984;5.088;2023-10-08T22:55:48;68.05;;;32.22;;
69625;SDS011;56847;51.984;5.088;2023-10-08T22:58:21;76.85;;;32.63;;
69625;SDS011;56847;51.984;5.088;2023-10-08T23:00:49;71.10;;;30.92;;
69625;SDS011;56847;51.984;5.088;2023-10-08T23:03:32;65.13;;;30.60;;
69625;SDS011;56847;51.984;5.088;2023-10-08T23:06:17;59.70;;;31.35;;
69625;SDS011;56847;51.984;5.088;2023-10-08T23:09:04;65.53;;;32.38;;
69625;SDS011;56847;51.984;5.088;2023-10-08T23:11:45;63.13;;;28.67;;
69625;SDS011;56847;51.984;5.088;2023-10-08T23:14:28;61.67;;;29.73;;
69625;SDS011;56847;51.984;5.088;2023-10-08T23:16:59;62.77;;;28.60;;
69625;SDS011;56847;51.984;5.088;2023-10-08T23:19:30;59.95;;;30.13;;
69625;SDS011;56847;51.984;5.088;2023-10-08T23:21:59;61.47;;;30.20;;
69625;SDS011;56847;51.984;5.088;2023-10-08T23:24:44;61.20;;;28.00;;
69625;SDS011;56847;51.984;5.088;2023-10-08T23:27:26;54.55;;;28.90;;
69625;SDS011;56847;51.984;5.088;2023-10-08T23:29:57;50.03;;;27.17;;
69625;SDS011;56847;51.984;5.088;2023-10-08T23:32:38;46.95;;;28.13;;
69625;SDS011;56847;51.984;5.088;2023-10-08T23:35:19;52.63;;;27.52;;
69625;SDS011;56847;51.984;5.088;2023-10-08T23:37:50;55.03;;;27.25;;
69625;SDS011;56847;51.984;5.088;2023-10-08T23:40:49;54.90;;;27.23;;
69625;SDS011;56847;51.984;5.088;2023-10-08T23:43:37;45.77;;;26.10;;
69625;SDS011;56847;51.984;5.088;2023-10-08T23:46:25;46.53;;;25.25;;
69625;SDS011;56847;51.984;5.088;2023-10-08T23:49:09;43.80;;;25.38;;
69625;SDS011;56847;51.984;5.088;2023-10-08T23:51:47;48.08;;;25.85;;
69625;SDS011;56847;51.984;5.088;2023-10-08T23:54:31;46.10;;;25.70;;
69625;SDS011;56847;51.984;5.088;2023-10-08T23:57:24;40.30;;;23.83;;
